sensor_id;sensor_type;location;lat;lon;timestamp;P1;durP1;ratioP1;P2;durP2;ratioP2
34064;SDS011;20339;49.754;20.158;2023-04-29T00:01:19;10.10;;;5.60;;
34064;SDS011;20339;49.754;20.158;2023-04-29T00:03:50;8.60;;;5.10;;
34064;SDS011;20339;49.754;20.158;2023-04-29T00:06:21;7.70;;;4.90;;
34064;SDS011;20339;49.754;20.158;2023-04-29T00:08:52;6.30;;;4.50;;
34064;SDS011;20339;49.754;20.158;2023-04-29T00:11:23;9.30;;;4.60;;
34064;SDS011;20339;49.754;20.158;2023-04-29T00:13:54;9.50;;;4.70;;
34064;SDS011;20339;49.754;20.158;2023-04-29T00:16:25;7.90;;;4.60;;
34064;SDS011;20339;49.754;20.158;2023-04-29T00:18:56;7.90;;;4.00;;
34064;SDS011;20339;49.754;20.158;2023-04-29T00:21:27;8.00;;;4.80;;
34064;SDS011;20339;49.754;20.158;2023-04-29T00:24:00;7.00;;;5.20;;
34064;SDS011;20339;49.754;20.158;2023-04-29T00:26:31;9.80;;;4.70;;
34064;SDS011;20339;49.754;20.158;2023-04-29T00:29:02;8.40;;;4.20;;
34064;SDS011;20339;49.754;20.158;2023-04-29T00:31:33;8.60;;;4.80;;
34064;SDS011;20339;49.754;20.158;2023-04-29T00:34:04;7.90;;;4.80;;
34064;SDS011;20339;49.754;20.158;2023-04-29T00:36:35;6.50;;;4.60;;
34064;SDS011;20339;49.754;20.158;2023-04-29T00:39:06;8.10;;;5.30;;
34064;SDS011;20339;49.754;20.158;2023-04-29T00:41:37;7.70;;;4.50;;
34064;SDS011;20339;49.754;20.158;2023-04-29T00:44:08;8.70;;;5.20;;
34064;SDS011;20339;49.754;20.158;2023-04-29T00:46:39;8.30;;;4.40;;
34064;SDS011;20339;49.754;20.158;2023-04-29T00:49:10;7.20;;;4.50;;
34064;SDS011;20339;49.754;20.158;2023-04-29T00:51:43;7.30;;;4.40;;
34064;SDS011;20339;49.754;20.158;2023-04-29T00:54:14;7.80;;;4.20;;
34064;SDS011;20339;49.754;20.158;2023-04-29T00:56:46;8.90;;;4.70;;
34064;SDS011;20339;49.754;20.158;2023-04-29T00:59:17;9.30;;;5.30;;
34064;SDS011;20339;49.754;20.158;2023-04-29T01:01:59;9.60;;;4.80;;
34064;SDS011;20339;49.754;20.158;2023-04-29T01:04:31;8.80;;;5.10;;
34064;SDS011;20339;49.754;20.158;2023-04-29T01:07:06;8.20;;;5.40;;
34064;SDS011;20339;49.754;20.158;2023-04-29T01:09:49;7.00;;;4.90;;
34064;SDS011;20339;49.754;20.158;2023-04-29T01:12:32;8.80;;;5.30;;
34064;SDS011;20339;49.754;20.158;2023-04-29T01:15:09;9.30;;;6.40;;
34064;SDS011;20339;49.754;20.158;2023-04-29T01:17:50;8.20;;;4.80;;
34064;SDS011;20339;49.754;20.158;2023-04-29T01:20:27;9.80;;;5.30;;
34064;SDS011;20339;49.754;20.158;2023-04-29T01:23:01;7.50;;;5.00;;
34064;SDS011;20339;49.754;20.158;2023-04-29T01:25:32;8.20;;;5.30;;
34064;SDS011;20339;49.754;20.158;2023-04-29T01:28:07;7.70;;;5.10;;
34064;SDS011;20339;49.754;20.158;2023-04-29T01:30:47;9.00;;;5.50;;
34064;SDS011;20339;49.754;20.158;2023-04-29T01:33:27;8.30;;;5.10;;
34064;SDS011;20339;49.754;20.158;2023-04-29T01:36:07;7.80;;;5.20;;
34064;SDS011;20339;49.754;20.158;2023-04-29T01:38:59;7.70;;;5.20;;
34064;SDS011;20339;49.754;20.158;2023-04-29T01:41:40;11.50;;;5.50;;
34064;SDS011;20339;49.754;20.158;2023-04-29T01:44:14;7.50;;;5.40;;
34064;SDS011;20339;49.754;20.158;2023-04-29T01:46:48;8.30;;;4.80;;
34064;SDS011;20339;49.754;20.158;2023-04-29T01:49:21;9.70;;;5.40;;
34064;SDS011;20339;49.754;20.158;2023-04-29T01:51:54;11.90;;;5.70;;
34064;SDS011;20339;49.754;20.158;2023-04-29T01:54:25;9.10;;;5.30;;
34064;SDS011;20339;49.754;20.158;2023-04-29T01:56:56;10.20;;;5.80;;
34064;SDS011;20339;49.754;20.158;2023-04-29T01:59:27;8.70;;;5.70;;
34064;SDS011;20339;49.754;20.158;2023-04-29T02:01:58;7.50;;;5.30;;
34064;SDS011;20339;49.754;20.158;2023-04-29T02:04:29;10.20;;;5.90;;
34064;SDS011;20339;49.754;20.158;2023-04-29T02:07:01;7.70;;;5.10;;
34064;SDS011;20339;49.754;20.158;2023-04-29T02:09:32;6.70;;;5.00;;
34064;SDS011;20339;49.754;20.158;2023-04-29T02:12:03;9.50;;;6.10;;
34064;SDS011;20339;49.754;20.158;2023-04-29T02:14:34;9.80;;;5.50;;
34064;SDS011;20339;49.754;20.158;2023-04-29T02:17:05;11.70;;;5.60;;
34064;SDS011;20339;49.754;20.158;2023-04-29T02:19:36;9.00;;;5.30;;
34064;SDS011;20339;49.754;20.158;2023-04-29T02:22:07;9.70;;;6.00;;
34064;SDS011;20339;49.754;20.158;2023-04-29T02:24:39;9.40;;;5.70;;
34064;SDS011;20339;49.754;20.158;2023-04-29T02:27:10;8.30;;;5.20;;
34064;SDS011;20339;49.754;20.158;2023-04-29T02:29:41;7.50;;;4.40;;
34064;SDS011;20339;49.754;20.158;2023-04-29T02:32:12;8.80;;;5.40;;
34064;SDS011;20339;49.754;20.158;2023-04-29T02:34:43;10.60;;;5.70;;
34064;SDS011;20339;49.754;20.158;2023-04-29T02:37:14;9.90;;;5.30;;
34064;SDS011;20339;49.754;20.158;2023-04-29T02:39:45;9.70;;;5.50;;
34064;SDS011;20339;49.754;20.158;2023-04-29T02:42:16;8.60;;;5.90;;
34064;SDS011;20339;49.754;20.158;2023-04-29T02:44:47;8.60;;;5.20;;
34064;SDS011;20339;49.754;20.158;2023-04-29T02:47:17;8.00;;;5.30;;
34064;SDS011;20339;49.754;20.158;2023-04-29T02:49:49;7.50;;;4.90;;
34064;SDS011;20339;49.754;20.158;2023-04-29T02:52:19;7.50;;;5.00;;
34064;SDS011;20339;49.754;20.158;2023-04-29T02:54:53;9.10;;;5.60;;
34064;SDS011;20339;49.754;20.158;2023-04-29T02:57:24;10.50;;;5.80;;
34064;SDS011;20339;49.754;20.158;2023-04-29T02:59:56;8.10;;;5.90;;
34064;SDS011;20339;49.754;20.158;2023-04-29T03:02:27;8.40;;;5.40;;
34064;SDS011;20339;49.754;20.158;2023-04-29T03:04:58;9.60;;;5.40;;
34064;SDS011;20339;49.754;20.158;2023-04-29T03:07:29;8.20;;;5.70;;
34064;SDS011;20339;49.754;20.158;2023-04-29T03:10:00;8.10;;;5.40;;
34064;SDS011;20339;49.754;20.158;2023-04-29T03:12:31;7.60;;;5.10;;
34064;SDS011;20339;49.754;20.158;2023-04-29T03:15:02;9.80;;;5.60;;
34064;SDS011;20339;49.754;20.158;2023-04-29T03:17:34;8.10;;;5.20;;
34064;SDS011;20339;49.754;20.158;2023-04-29T03:20:06;9.00;;;5.80;;
34064;SDS011;20339;49.754;20.158;2023-04-29T03:22:38;7.20;;;5.40;;
34064;SDS011;20339;49.754;20.158;2023-04-29T03:25:09;8.70;;;4.70;;
34064;SDS011;20339;49.754;20.158;2023-04-29T03:27:40;8.30;;;5.70;;
34064;SDS011;20339;49.754;20.158;2023-04-29T03:30:11;7.60;;;5.10;;
34064;SDS011;20339;49.754;20.158;2023-04-29T03:32:42;8.90;;;5.50;;
34064;SDS011;20339;49.754;20.158;2023-04-29T03:35:13;10.20;;;5.20;;
34064;SDS011;20339;49.754;20.158;2023-04-29T03:37:44;8.20;;;5.20;;
34064;SDS011;20339;49.754;20.158;2023-04-29T03:40:15;8.40;;;5.10;;
34064;SDS011;20339;49.754;20.158;2023-04-29T03:42:46;9.70;;;5.60;;
34064;SDS011;20339;49.754;20.158;2023-04-29T03:45:17;9.10;;;5.60;;
34064;SDS011;20339;49.754;20.158;2023-04-29T03:47:48;7.80;;;5.40;;
34064;SDS011;20339;49.754;20.158;2023-04-29T03:50:21;7.60;;;5.20;;
34064;SDS011;20339;49.754;20.158;2023-04-29T03:52:52;8.70;;;5.90;;
34064;SDS011;20339;49.754;20.158;2023-04-29T03:55:24;10.40;;;6.10;;
34064;SDS011;20339;49.754;20.158;2023-04-29T03:57:55;10.10;;;6.20;;
34064;SDS011;20339;49.754;20.158;2023-04-29T04:00:26;11.90;;;6.80;;
34064;SDS011;20339;49.754;20.158;2023-04-29T04:03:06;9.10;;;6.40;;
34064;SDS011;20339;49.754;20.158;2023-04-29T04:05:37;8.20;;;5.70;;
34064;SDS011;20339;49.754;20.158;2023-04-29T04:08:08;9.30;;;5.30;;
34064;SDS011;20339;49.754;20.158;2023-04-29T04:10:39;9.70;;;6.50;;
34064;SDS011;20339;49.754;20.158;2023-04-29T04:13:10;10.30;;;6.10;;
34064;SDS011;20339;49.754;20.158;2023-04-29T04:15:41;8.70;;;5.90;;
34064;SDS011;20339;49.754;20.158;2023-04-29T04:18:17;8.10;;;6.20;;
34064;SDS011;20339;49.754;20.158;2023-04-29T04:20:48;7.80;;;5.60;;
34064;SDS011;20339;49.754;20.158;2023-04-29T04:23:19;9.50;;;6.20;;
34064;SDS011;20339;49.754;20.158;2023-04-29T04:25:50;11.70;;;6.60;;
34064;SDS011;20339;49.754;20.158;2023-04-29T04:28:21;11.00;;;7.00;;
34064;SDS011;20339;49.754;20.158;2023-04-29T04:30:52;10.10;;;6.40;;
34064;SDS011;20339;49.754;20.158;2023-04-29T04:33:23;8.30;;;5.40;;
34064;SDS011;20339;49.754;20.158;2023-04-29T04:35:54;8.90;;;5.30;;
34064;SDS011;20339;49.754;20.158;2023-04-29T04:38:25;7.80;;;5.40;;
34064;SDS011;20339;49.754;20.158;2023-04-29T04:40:55;11.60;;;6.60;;
34064;SDS011;20339;49.754;20.158;2023-04-29T04:43:26;7.10;;;5.30;;
34064;SDS011;20339;49.754;20.158;2023-04-29T04:45:57;7.40;;;6.20;;
34064;SDS011;20339;49.754;20.158;2023-04-29T04:48:29;10.80;;;6.40;;
34064;SDS011;20339;49.754;20.158;2023-04-29T04:51:00;11.10;;;6.80;;
34064;SDS011;20339;49.754;20.158;2023-04-29T04:53:38;11.20;;;6.50;;
34064;SDS011;20339;49.754;20.158;2023-04-29T04:56:09;9.80;;;6.70;;
34064;SDS011;20339;49.754;20.158;2023-04-29T04:58:40;13.80;;;6.80;;
34064;SDS011;20339;49.754;20.158;2023-04-29T05:01:12;10.80;;;7.00;;
34064;SDS011;20339;49.754;20.158;2023-04-29T05:03:43;9.40;;;6.10;;
34064;SDS011;20339;49.754;20.158;2023-04-29T05:06:14;8.00;;;6.20;;
34064;SDS011;20339;49.754;20.158;2023-04-29T05:08:44;9.40;;;6.10;;
34064;SDS011;20339;49.754;20.158;2023-04-29T05:11:16;9.00;;;6.10;;
34064;SDS011;20339;49.754;20.158;2023-04-29T05:13:47;9.30;;;6.20;;
34064;SDS011;20339;49.754;20.158;2023-04-29T05:16:18;8.40;;;6.30;;
34064;SDS011;20339;49.754;20.158;2023-04-29T05:18:49;9.70;;;6.60;;
34064;SDS011;20339;49.754;20.158;2023-04-29T05:21:20;8.90;;;6.90;;
34064;SDS011;20339;49.754;20.158;2023-04-29T05:23:51;9.60;;;6.80;;
34064;SDS011;20339;49.754;20.158;2023-04-29T05:26:22;10.50;;;6.80;;
34064;SDS011;20339;49.754;20.158;2023-04-29T05:28:53;8.00;;;6.60;;
34064;SDS011;20339;49.754;20.158;2023-04-29T05:31:24;8.70;;;7.40;;
34064;SDS011;20339;49.754;20.158;2023-04-29T05:33:55;7.20;;;5.80;;
34064;SDS011;20339;49.754;20.158;2023-04-29T05:36:26;9.30;;;7.00;;
34064;SDS011;20339;49.754;20.158;2023-04-29T05:38:57;8.10;;;6.00;;
34064;SDS011;20339;49.754;20.158;2023-04-29T05:41:28;10.30;;;7.20;;
34064;SDS011;20339;49.754;20.158;2023-04-29T05:43:59;8.40;;;7.00;;
34064;SDS011;20339;49.754;20.158;2023-04-29T05:46:30;11.50;;;6.70;;
34064;SDS011;20339;49.754;20.158;2023-04-29T05:49:01;8.70;;;6.30;;
34064;SDS011;20339;49.754;20.158;2023-04-29T05:51:32;10.40;;;6.50;;
34064;SDS011;20339;49.754;20.158;2023-04-29T05:54:03;9.80;;;6.40;;
34064;SDS011;20339;49.754;20.158;2023-04-29T05:56:34;10.30;;;6.30;;
34064;SDS011;20339;49.754;20.158;2023-04-29T05:59:05;7.30;;;6.10;;
34064;SDS011;20339;49.754;20.158;2023-04-29T06:01:36;10.30;;;6.50;;
34064;SDS011;20339;49.754;20.158;2023-04-29T06:04:07;10.30;;;6.60;;
34064;SDS011;20339;49.754;20.158;2023-04-29T06:06:38;8.70;;;6.30;;
34064;SDS011;20339;49.754;20.158;2023-04-29T06:09:09;9.10;;;6.60;;
34064;SDS011;20339;49.754;20.158;2023-04-29T06:11:42;8.20;;;6.50;;
34064;SDS011;20339;49.754;20.158;2023-04-29T06:14:13;10.60;;;7.00;;
34064;SDS011;20339;49.754;20.158;2023-04-29T06:16:44;11.40;;;7.40;;
34064;SDS011;20339;49.754;20.158;2023-04-29T06:19:16;10.30;;;7.80;;
34064;SDS011;20339;49.754;20.158;2023-04-29T06:21:48;9.40;;;7.10;;
34064;SDS011;20339;49.754;20.158;2023-04-29T06:24:19;8.30;;;5.80;;
34064;SDS011;20339;49.754;20.158;2023-04-29T06:26:51;9.20;;;6.40;;
34064;SDS011;20339;49.754;20.158;2023-04-29T06:29:22;10.90;;;7.20;;
34064;SDS011;20339;49.754;20.158;2023-04-29T06:31:53;11.00;;;7.60;;
34064;SDS011;20339;49.754;20.158;2023-04-29T06:34:24;8.60;;;6.90;;
34064;SDS011;20339;49.754;20.158;2023-04-29T06:36:55;9.40;;;7.80;;
34064;SDS011;20339;49.754;20.158;2023-04-29T06:39:26;8.60;;;6.30;;
34064;SDS011;20339;49.754;20.158;2023-04-29T06:41:57;11.10;;;8.30;;
34064;SDS011;20339;49.754;20.158;2023-04-29T06:44:28;10.00;;;7.00;;
34064;SDS011;20339;49.754;20.158;2023-04-29T06:47:00;9.90;;;7.30;;
34064;SDS011;20339;49.754;20.158;2023-04-29T06:49:31;13.50;;;8.90;;
34064;SDS011;20339;49.754;20.158;2023-04-29T06:52:02;12.50;;;7.80;;
34064;SDS011;20339;49.754;20.158;2023-04-29T06:54:33;9.20;;;7.20;;
34064;SDS011;20339;49.754;20.158;2023-04-29T06:57:05;10.90;;;6.90;;
34064;SDS011;20339;49.754;20.158;2023-04-29T06:59:36;8.70;;;6.30;;
34064;SDS011;20339;49.754;20.158;2023-04-29T07:02:07;10.90;;;7.50;;
34064;SDS011;20339;49.754;20.158;2023-04-29T07:04:39;8.20;;;6.50;;
34064;SDS011;20339;49.754;20.158;2023-04-29T07:07:10;8.50;;;7.20;;
34064;SDS011;20339;49.754;20.158;2023-04-29T07:09:41;10.40;;;8.30;;
34064;SDS011;20339;49.754;20.158;2023-04-29T07:12:12;9.50;;;7.40;;
34064;SDS011;20339;49.754;20.158;2023-04-29T07:14:43;12.50;;;8.50;;
34064;SDS011;20339;49.754;20.158;2023-04-29T07:17:14;12.70;;;8.90;;
34064;SDS011;20339;49.754;20.158;2023-04-29T07:19:45;12.10;;;9.00;;
34064;SDS011;20339;49.754;20.158;2023-04-29T07:22:16;11.40;;;9.70;;
34064;SDS011;20339;49.754;20.158;2023-04-29T07:24:48;12.70;;;8.80;;
34064;SDS011;20339;49.754;20.158;2023-04-29T07:27:21;11.60;;;8.00;;
34064;SDS011;20339;49.754;20.158;2023-04-29T07:29:52;10.90;;;8.80;;
34064;SDS011;20339;49.754;20.158;2023-04-29T07:32:23;11.60;;;8.80;;
34064;SDS011;20339;49.754;20.158;2023-04-29T07:34:54;11.90;;;9.00;;
34064;SDS011;20339;49.754;20.158;2023-04-29T07:37:26;10.20;;;8.60;;
34064;SDS011;20339;49.754;20.158;2023-04-29T07:39:58;12.70;;;9.40;;
34064;SDS011;20339;49.754;20.158;2023-04-29T07:42:29;15.40;;;10.90;;
34064;SDS011;20339;49.754;20.158;2023-04-29T07:45:00;12.00;;;9.20;;
34064;SDS011;20339;49.754;20.158;2023-04-29T07:47:32;10.40;;;7.50;;
34064;SDS011;20339;49.754;20.158;2023-04-29T07:50:03;10.00;;;7.40;;
34064;SDS011;20339;49.754;20.158;2023-04-29T07:52:35;9.20;;;6.60;;
34064;SDS011;20339;49.754;20.158;2023-04-29T07:55:07;11.10;;;7.20;;
34064;SDS011;20339;49.754;20.158;2023-04-29T07:57:39;7.70;;;5.40;;
34064;SDS011;20339;49.754;20.158;2023-04-29T08:00:11;6.50;;;5.30;;
34064;SDS011;20339;49.754;20.158;2023-04-29T08:02:43;7.10;;;5.10;;
34064;SDS011;20339;49.754;20.158;2023-04-29T08:05:14;7.10;;;4.60;;
34064;SDS011;20339;49.754;20.158;2023-04-29T08:07:46;6.60;;;4.80;;
34064;SDS011;20339;49.754;20.158;2023-04-29T08:10:17;5.80;;;4.00;;
34064;SDS011;20339;49.754;20.158;2023-04-29T08:12:49;6.10;;;4.50;;
34064;SDS011;20339;49.754;20.158;2023-04-29T08:15:20;6.10;;;3.80;;
34064;SDS011;20339;49.754;20.158;2023-04-29T08:17:52;6.30;;;4.30;;
34064;SDS011;20339;49.754;20.158;2023-04-29T08:20:23;7.40;;;4.10;;
34064;SDS011;20339;49.754;20.158;2023-04-29T08:22:55;6.60;;;3.90;;
34064;SDS011;20339;49.754;20.158;2023-04-29T08:25:28;6.20;;;4.40;;
34064;SDS011;20339;49.754;20.158;2023-04-29T08:27:59;6.90;;;4.50;;
34064;SDS011;20339;49.754;20.158;2023-04-29T08:30:30;6.90;;;4.80;;
34064;SDS011;20339;49.754;20.158;2023-04-29T08:33:05;5.30;;;4.30;;
34064;SDS011;20339;49.754;20.158;2023-04-29T08:35:36;5.60;;;4.20;;
34064;SDS011;20339;49.754;20.158;2023-04-29T08:38:07;7.10;;;4.60;;
34064;SDS011;20339;49.754;20.158;2023-04-29T08:40:41;8.00;;;4.70;;
34064;SDS011;20339;49.754;20.158;2023-04-29T08:43:13;6.60;;;4.40;;
34064;SDS011;20339;49.754;20.158;2023-04-29T08:45:45;9.20;;;5.40;;
34064;SDS011;20339;49.754;20.158;2023-04-29T08:48:18;6.00;;;4.50;;
34064;SDS011;20339;49.754;20.158;2023-04-29T08:50:50;7.50;;;5.00;;
34064;SDS011;20339;49.754;20.158;2023-04-29T08:53:21;7.90;;;4.40;;
34064;SDS011;20339;49.754;20.158;2023-04-29T08:55:53;5.60;;;4.20;;
34064;SDS011;20339;49.754;20.158;2023-04-29T08:58:26;8.20;;;5.00;;
34064;SDS011;20339;49.754;20.158;2023-04-29T09:00:58;7.40;;;5.10;;
34064;SDS011;20339;49.754;20.158;2023-04-29T09:03:30;6.20;;;4.90;;
34064;SDS011;20339;49.754;20.158;2023-04-29T09:08:39;6.70;;;5.40;;
34064;SDS011;20339;49.754;20.158;2023-04-29T09:11:11;10.20;;;6.20;;
34064;SDS011;20339;49.754;20.158;2023-04-29T09:13:42;9.80;;;6.40;;
34064;SDS011;20339;49.754;20.158;2023-04-29T09:16:13;7.60;;;6.30;;
34064;SDS011;20339;49.754;20.158;2023-04-29T09:18:45;9.50;;;6.30;;
34064;SDS011;20339;49.754;20.158;2023-04-29T09:21:19;9.90;;;6.30;;
34064;SDS011;20339;49.754;20.158;2023-04-29T09:23:52;8.00;;;5.00;;
34064;SDS011;20339;49.754;20.158;2023-04-29T09:26:24;9.10;;;5.90;;
34064;SDS011;20339;49.754;20.158;2023-04-29T09:29:06;8.10;;;5.80;;
34064;SDS011;20339;49.754;20.158;2023-04-29T09:31:40;7.50;;;5.90;;
34064;SDS011;20339;49.754;20.158;2023-04-29T09:34:12;8.10;;;5.70;;
34064;SDS011;20339;49.754;20.158;2023-04-29T09:36:44;7.80;;;6.10;;
34064;SDS011;20339;49.754;20.158;2023-04-29T09:39:17;8.60;;;5.80;;
34064;SDS011;20339;49.754;20.158;2023-04-29T09:41:59;8.00;;;6.10;;
34064;SDS011;20339;49.754;20.158;2023-04-29T09:44:30;8.10;;;5.70;;
34064;SDS011;20339;49.754;20.158;2023-04-29T09:47:04;7.20;;;5.30;;
34064;SDS011;20339;49.754;20.158;2023-04-29T09:49:37;7.90;;;5.60;;
34064;SDS011;20339;49.754;20.158;2023-04-29T09:52:09;5.80;;;4.50;;
34064;SDS011;20339;49.754;20.158;2023-04-29T09:54:43;6.40;;;4.50;;
34064;SDS011;20339;49.754;20.158;2023-04-29T09:57:14;6.70;;;4.70;;
34064;SDS011;20339;49.754;20.158;2023-04-29T09:59:46;7.80;;;5.40;;
34064;SDS011;20339;49.754;20.158;2023-04-29T10:02:17;8.70;;;5.60;;
34064;SDS011;20339;49.754;20.158;2023-04-29T10:04:52;7.20;;;5.30;;
34064;SDS011;20339;49.754;20.158;2023-04-29T10:07:25;7.90;;;5.10;;
34064;SDS011;20339;49.754;20.158;2023-04-29T10:09:57;6.90;;;4.80;;
34064;SDS011;20339;49.754;20.158;2023-04-29T10:12:28;6.10;;;5.00;;
34064;SDS011;20339;49.754;20.158;2023-04-29T10:15:02;8.10;;;5.30;;
34064;SDS011;20339;49.754;20.158;2023-04-29T10:17:43;7.80;;;5.30;;
34064;SDS011;20339;49.754;20.158;2023-04-29T10:20:21;7.30;;;4.80;;
34064;SDS011;20339;49.754;20.158;2023-04-29T10:22:53;8.00;;;5.40;;
34064;SDS011;20339;49.754;20.158;2023-04-29T10:25:26;6.40;;;4.70;;
34064;SDS011;20339;49.754;20.158;2023-04-29T10:27:57;5.30;;;4.50;;
34064;SDS011;20339;49.754;20.158;2023-04-29T10:30:32;7.50;;;4.90;;
34064;SDS011;20339;49.754;20.158;2023-04-29T10:33:03;7.30;;;4.70;;
34064;SDS011;20339;49.754;20.158;2023-04-29T10:35:37;4.80;;;3.50;;
34064;SDS011;20339;49.754;20.158;2023-04-29T10:38:12;4.10;;;3.30;;
34064;SDS011;20339;49.754;20.158;2023-04-29T10:40:49;3.50;;;3.00;;
34064;SDS011;20339;49.754;20.158;2023-04-29T10:43:23;4.50;;;3.20;;
34064;SDS011;20339;49.754;20.158;2023-04-29T10:48:50;3.70;;;3.00;;
34064;SDS011;20339;49.754;20.158;2023-04-29T10:51:33;3.60;;;3.00;;
34064;SDS011;20339;49.754;20.158;2023-04-29T10:54:09;4.80;;;2.90;;
34064;SDS011;20339;49.754;20.158;2023-04-29T10:56:43;4.60;;;3.30;;
34064;SDS011;20339;49.754;20.158;2023-04-29T10:59:19;4.20;;;2.60;;
34064;SDS011;20339;49.754;20.158;2023-04-29T11:02:12;3.60;;;2.80;;
34064;SDS011;20339;49.754;20.158;2023-04-29T11:07:37;5.00;;;3.10;;
34064;SDS011;20339;49.754;20.158;2023-04-29T11:10:08;5.50;;;3.20;;
34064;SDS011;20339;49.754;20.158;2023-04-29T11:12:40;4.40;;;3.00;;
34064;SDS011;20339;49.754;20.158;2023-04-29T11:15:11;3.70;;;3.20;;
34064;SDS011;20339;49.754;20.158;2023-04-29T11:17:47;3.90;;;3.20;;
34064;SDS011;20339;49.754;20.158;2023-04-29T11:20:19;3.40;;;3.00;;
34064;SDS011;20339;49.754;20.158;2023-04-29T11:22:50;4.00;;;3.00;;
34064;SDS011;20339;49.754;20.158;2023-04-29T11:25:22;4.00;;;2.90;;
34064;SDS011;20339;49.754;20.158;2023-04-29T11:27:56;4.00;;;3.40;;
34064;SDS011;20339;49.754;20.158;2023-04-29T11:30:28;4.90;;;3.40;;
34064;SDS011;20339;49.754;20.158;2023-04-29T11:33:00;3.20;;;2.90;;
34064;SDS011;20339;49.754;20.158;2023-04-29T11:35:32;3.70;;;3.30;;
34064;SDS011;20339;49.754;20.158;2023-04-29T11:38:03;3.20;;;2.70;;
34064;SDS011;20339;49.754;20.158;2023-04-29T11:40:35;3.80;;;2.90;;
34064;SDS011;20339;49.754;20.158;2023-04-29T11:43:17;6.30;;;3.60;;
34064;SDS011;20339;49.754;20.158;2023-04-29T11:45:49;3.40;;;3.10;;
34064;SDS011;20339;49.754;20.158;2023-04-29T11:48:23;4.40;;;3.10;;
34064;SDS011;20339;49.754;20.158;2023-04-29T11:50:57;4.30;;;2.90;;
34064;SDS011;20339;49.754;20.158;2023-04-29T11:53:29;4.70;;;3.30;;
34064;SDS011;20339;49.754;20.158;2023-04-29T11:56:00;4.20;;;3.20;;
34064;SDS011;20339;49.754;20.158;2023-04-29T11:58:31;3.80;;;3.40;;
34064;SDS011;20339;49.754;20.158;2023-04-29T12:01:03;3.50;;;2.60;;
34064;SDS011;20339;49.754;20.158;2023-04-29T12:03:35;5.00;;;3.80;;
34064;SDS011;20339;49.754;20.158;2023-04-29T12:06:08;5.80;;;3.70;;
34064;SDS011;20339;49.754;20.158;2023-04-29T12:08:41;4.80;;;3.50;;
34064;SDS011;20339;49.754;20.158;2023-04-29T12:11:16;5.80;;;3.30;;
34064;SDS011;20339;49.754;20.158;2023-04-29T12:13:48;5.30;;;4.00;;
34064;SDS011;20339;49.754;20.158;2023-04-29T12:16:19;5.60;;;3.60;;
34064;SDS011;20339;49.754;20.158;2023-04-29T12:18:51;4.40;;;3.70;;
34064;SDS011;20339;49.754;20.158;2023-04-29T12:21:23;5.90;;;3.90;;
34064;SDS011;20339;49.754;20.158;2023-04-29T12:23:57;4.70;;;3.70;;
34064;SDS011;20339;49.754;20.158;2023-04-29T12:26:30;6.50;;;4.20;;
34064;SDS011;20339;49.754;20.158;2023-04-29T12:29:01;4.80;;;3.70;;
34064;SDS011;20339;49.754;20.158;2023-04-29T12:31:33;4.60;;;3.50;;
34064;SDS011;20339;49.754;20.158;2023-04-29T12:34:06;6.20;;;4.40;;
34064;SDS011;20339;49.754;20.158;2023-04-29T12:36:40;6.00;;;3.90;;
34064;SDS011;20339;49.754;20.158;2023-04-29T12:39:13;6.20;;;4.00;;
34064;SDS011;20339;49.754;20.158;2023-04-29T12:41:44;5.20;;;3.80;;
34064;SDS011;20339;49.754;20.158;2023-04-29T12:44:15;6.60;;;3.90;;
34064;SDS011;20339;49.754;20.158;2023-04-29T12:46:47;4.70;;;3.60;;
34064;SDS011;20339;49.754;20.158;2023-04-29T12:49:19;6.10;;;3.90;;
34064;SDS011;20339;49.754;20.158;2023-04-29T12:51:52;4.60;;;3.40;;
34064;SDS011;20339;49.754;20.158;2023-04-29T12:54:23;6.00;;;3.90;;
34064;SDS011;20339;49.754;20.158;2023-04-29T12:56:54;6.10;;;3.80;;
34064;SDS011;20339;49.754;20.158;2023-04-29T12:59:25;4.90;;;3.70;;
34064;SDS011;20339;49.754;20.158;2023-04-29T13:01:56;7.00;;;4.50;;
34064;SDS011;20339;49.754;20.158;2023-04-29T13:04:28;7.00;;;4.40;;
34064;SDS011;20339;49.754;20.158;2023-04-29T13:06:59;7.80;;;4.60;;
34064;SDS011;20339;49.754;20.158;2023-04-29T13:09:31;8.70;;;4.50;;
34064;SDS011;20339;49.754;20.158;2023-04-29T13:12:05;6.00;;;4.40;;
34064;SDS011;20339;49.754;20.158;2023-04-29T13:14:36;6.40;;;4.20;;
34064;SDS011;20339;49.754;20.158;2023-04-29T13:17:07;7.40;;;5.10;;
34064;SDS011;20339;49.754;20.158;2023-04-29T13:19:38;7.10;;;4.50;;
34064;SDS011;20339;49.754;20.158;2023-04-29T13:22:12;5.20;;;4.30;;
34064;SDS011;20339;49.754;20.158;2023-04-29T13:24:43;6.80;;;4.50;;
34064;SDS011;20339;49.754;20.158;2023-04-29T13:27:14;7.80;;;4.70;;
34064;SDS011;20339;49.754;20.158;2023-04-29T13:29:46;5.90;;;4.30;;
34064;SDS011;20339;49.754;20.158;2023-04-29T13:32:17;6.30;;;4.70;;
34064;SDS011;20339;49.754;20.158;2023-04-29T13:34:50;7.20;;;5.00;;
34064;SDS011;20339;49.754;20.158;2023-04-29T13:37:21;6.60;;;4.50;;
34064;SDS011;20339;49.754;20.158;2023-04-29T13:39:53;6.90;;;5.00;;
34064;SDS011;20339;49.754;20.158;2023-04-29T13:42:24;6.20;;;4.50;;
34064;SDS011;20339;49.754;20.158;2023-04-29T13:44:55;6.30;;;4.30;;
34064;SDS011;20339;49.754;20.158;2023-04-29T13:47:27;6.40;;;4.70;;
34064;SDS011;20339;49.754;20.158;2023-04-29T13:49:58;7.90;;;5.00;;
34064;SDS011;20339;49.754;20.158;2023-04-29T13:52:29;7.10;;;4.60;;
34064;SDS011;20339;49.754;20.158;2023-04-29T13:55:01;17.10;;;12.30;;
34064;SDS011;20339;49.754;20.158;2023-04-29T13:57:32;8.10;;;5.40;;
34064;SDS011;20339;49.754;20.158;2023-04-29T14:00:04;19.10;;;14.50;;
34064;SDS011;20339;49.754;20.158;2023-04-29T14:02:38;7.10;;;6.00;;
34064;SDS011;20339;49.754;20.158;2023-04-29T14:05:09;5.50;;;4.40;;
34064;SDS011;20339;49.754;20.158;2023-04-29T14:07:41;7.80;;;5.50;;
34064;SDS011;20339;49.754;20.158;2023-04-29T14:10:12;6.30;;;4.60;;
34064;SDS011;20339;49.754;20.158;2023-04-29T14:12:43;5.70;;;4.80;;
34064;SDS011;20339;49.754;20.158;2023-04-29T14:15:15;6.60;;;4.20;;
34064;SDS011;20339;49.754;20.158;2023-04-29T14:17:47;5.80;;;4.50;;
34064;SDS011;20339;49.754;20.158;2023-04-29T14:20:20;5.50;;;4.70;;
34064;SDS011;20339;49.754;20.158;2023-04-29T14:22:51;7.90;;;5.20;;
34064;SDS011;20339;49.754;20.158;2023-04-29T14:25:22;7.00;;;4.90;;
34064;SDS011;20339;49.754;20.158;2023-04-29T14:27:54;6.30;;;4.40;;
34064;SDS011;20339;49.754;20.158;2023-04-29T14:30:25;7.20;;;5.00;;
34064;SDS011;20339;49.754;20.158;2023-04-29T14:32:57;6.60;;;4.50;;
34064;SDS011;20339;49.754;20.158;2023-04-29T14:35:28;6.80;;;5.10;;
34064;SDS011;20339;49.754;20.158;2023-04-29T14:37:59;7.10;;;4.80;;
34064;SDS011;20339;49.754;20.158;2023-04-29T14:40:31;6.50;;;4.80;;
34064;SDS011;20339;49.754;20.158;2023-04-29T14:43:02;7.70;;;5.30;;
34064;SDS011;20339;49.754;20.158;2023-04-29T14:45:33;7.30;;;5.00;;
34064;SDS011;20339;49.754;20.158;2023-04-29T14:48:05;7.90;;;5.60;;
34064;SDS011;20339;49.754;20.158;2023-04-29T14:50:36;7.90;;;5.10;;
34064;SDS011;20339;49.754;20.158;2023-04-29T14:53:07;10.80;;;6.70;;
34064;SDS011;20339;49.754;20.158;2023-04-29T14:55:39;7.30;;;5.20;;
34064;SDS011;20339;49.754;20.158;2023-04-29T14:58:11;9.10;;;5.60;;
34064;SDS011;20339;49.754;20.158;2023-04-29T15:00:42;8.20;;;5.20;;
34064;SDS011;20339;49.754;20.158;2023-04-29T15:03:13;8.60;;;6.10;;
34064;SDS011;20339;49.754;20.158;2023-04-29T15:05:44;6.90;;;5.90;;
34064;SDS011;20339;49.754;20.158;2023-04-29T15:08:17;9.50;;;6.20;;
34064;SDS011;20339;49.754;20.158;2023-04-29T15:10:48;9.60;;;6.30;;